createdAt,value
2022-12-08T00:00:54.249Z,10.43
2022-12-08T00:03:28.062Z,10.53
2022-12-08T00:06:18.505Z,10.17
2022-12-08T00:09:08.559Z,10.37
2022-12-08T00:11:44.813Z,8.80
2022-12-08T00:14:17.618Z,9.93
2022-12-08T00:16:51.914Z,10.10
2022-12-08T00:19:25.126Z,11.37
2022-12-08T00:21:58.153Z,11.20
2022-12-08T00:24:34.963Z,12.97
2022-12-08T00:27:18.148Z,7.50
2022-12-08T00:29:50.838Z,9.20
2022-12-08T00:32:24.956Z,11.37
2022-12-08T00:34:57.760Z,12.97
2022-12-08T00:37:30.553Z,13.03
2022-12-08T00:40:03.516Z,13.30
2022-12-08T00:42:36.483Z,12.23
2022-12-08T00:45:09.501Z,10.67
2022-12-08T00:47:46.478Z,9.83
2022-12-08T00:50:19.441Z,9.47
2022-12-08T00:52:52.152Z,11.53
2022-12-08T00:55:24.987Z,9.10
2022-12-08T00:57:57.745Z,13.57
2022-12-08T01:00:30.497Z,10.80
2022-12-08T01:03:04.934Z,11.80
2022-12-08T01:05:37.870Z,11.87
2022-12-08T01:08:13.297Z,12.30
2022-12-08T01:10:47.975Z,9.30
2022-12-08T01:13:20.678Z,10.10
2022-12-08T01:15:53.644Z,10.70
2022-12-08T01:18:29.115Z,12.20
2022-12-08T01:21:03.432Z,10.63
2022-12-08T01:23:36.422Z,10.57
2022-12-08T01:26:10.162Z,13.87
2022-12-08T01:28:43.330Z,9.67
2022-12-08T01:31:17.225Z,10.40
2022-12-08T01:33:54.224Z,9.80
2022-12-08T01:36:27.900Z,12.20
2022-12-08T01:39:04.816Z,10.43
2022-12-08T01:41:38.701Z,11.97
2022-12-08T01:44:30.426Z,13.20
2022-12-08T01:47:04.876Z,11.00
2022-12-08T01:49:41.684Z,10.13
2022-12-08T01:52:18.914Z,13.03
2022-12-08T01:54:55.693Z,13.50
2022-12-08T01:57:30.299Z,14.73
2022-12-08T02:00:05.563Z,15.63
2022-12-08T02:02:40.931Z,10.07
2022-12-08T02:05:18.907Z,15.97
2022-12-08T02:07:52.734Z,12.87
2022-12-08T02:10:27.830Z,15.33
2022-12-08T02:13:01.563Z,10.67
2022-12-08T02:15:38.801Z,12.20
2022-12-08T02:18:18.166Z,11.17
2022-12-08T02:20:57.106Z,13.27
2022-12-08T02:23:35.194Z,11.40
2022-12-08T02:26:21.699Z,14.77
2022-12-08T02:29:10.055Z,11.83
2022-12-08T02:31:50.431Z,12.67
2022-12-08T02:34:30.267Z,12.10
2022-12-08T02:37:07.364Z,10.53
2022-12-08T02:39:45.874Z,11.37
2022-12-08T02:42:26.193Z,12.83
2022-12-08T02:45:02.416Z,10.10
2022-12-08T02:47:35.577Z,11.87
2022-12-08T02:50:10.451Z,11.57
2022-12-08T02:52:46.657Z,9.87
2022-12-08T02:55:22.204Z,9.83
2022-12-08T02:58:05.719Z,10.03
2022-12-08T03:00:43.468Z,10.93
2022-12-08T03:03:20.217Z,7.60
2022-12-08T03:06:00.502Z,7.37
2022-12-08T03:08:35.418Z,9.27
2022-12-08T03:11:11.671Z,7.77
2022-12-08T03:13:46.165Z,8.73
2022-12-08T03:16:22.113Z,8.47
2022-12-08T03:19:02.680Z,7.50
2022-12-08T03:21:37.175Z,7.70
2022-12-08T03:24:13.983Z,6.20
2022-12-08T03:26:57.953Z,6.37
2022-12-08T03:29:31.313Z,8.97
2022-12-08T03:32:08.205Z,8.53
2022-12-08T03:34:41.865Z,6.87
2022-12-08T03:37:16.152Z,9.40
2022-12-08T03:39:48.995Z,7.30
2022-12-08T03:42:21.788Z,7.40
2022-12-08T03:44:55.019Z,7.27
2022-12-08T03:47:27.815Z,6.50
2022-12-08T03:50:05.822Z,7.07
2022-12-08T03:52:40.407Z,6.07
2022-12-08T03:55:13.511Z,8.00
2022-12-08T03:57:46.136Z,9.27
2022-12-08T04:00:19.063Z,7.20
2022-12-08T04:02:52.261Z,6.77
2022-12-08T04:05:25.100Z,6.40
2022-12-08T04:08:01.387Z,8.10
2022-12-08T04:10:34.599Z,8.43
2022-12-08T04:13:07.348Z,10.00
2022-12-08T04:15:40.328Z,12.03
2022-12-08T04:18:13.075Z,8.07
2022-12-08T04:20:46.254Z,11.30
2022-12-08T04:23:20.762Z,8.43
2022-12-08T04:25:54.152Z,6.80
2022-12-08T04:28:29.481Z,12.17
2022-12-08T04:31:02.361Z,9.20
2022-12-08T04:33:36.194Z,8.60
2022-12-08T04:36:12.484Z,10.93
2022-12-08T04:38:46.549Z,9.77
2022-12-08T04:41:19.326Z,9.27
2022-12-08T04:43:52.215Z,10.13
2022-12-08T04:46:25.236Z,10.03
2022-12-08T04:48:58.146Z,9.83
2022-12-08T04:51:31.130Z,8.97
2022-12-08T04:54:05.594Z,9.90
2022-12-08T04:56:41.263Z,9.57
2022-12-08T04:59:13.986Z,10.23
2022-12-08T05:01:46.879Z,14.77
2022-12-08T05:04:19.919Z,11.27
2022-12-08T05:06:53.218Z,11.83
2022-12-08T05:09:29.393Z,15.40
2022-12-08T05:12:02.184Z,14.57
2022-12-08T05:14:35.092Z,11.07
2022-12-08T05:17:09.805Z,14.07
2022-12-08T05:19:42.840Z,13.63
2022-12-08T05:22:15.844Z,15.30
2022-12-08T05:24:54.482Z,14.20
2022-12-08T05:27:32.350Z,11.30
2022-12-08T05:30:06.683Z,12.73
2022-12-08T05:32:39.821Z,14.03
2022-12-08T05:35:12.684Z,15.03
2022-12-08T05:37:45.569Z,14.77
2022-12-08T05:40:20.059Z,13.97
2022-12-08T05:42:55.140Z,13.77
2022-12-08T05:45:28.081Z,16.97
2022-12-08T05:48:01.052Z,14.20
2022-12-08T05:50:33.952Z,19.90
2022-12-08T05:53:06.698Z,15.40
2022-12-08T05:55:41.013Z,16.93
2022-12-08T05:58:14.406Z,14.03
2022-12-08T06:00:47.855Z,15.60
2022-12-08T06:03:23.310Z,18.03
2022-12-08T06:05:56.180Z,15.57
2022-12-08T06:08:29.221Z,18.27
2022-12-08T06:11:03.466Z,17.47
2022-12-08T06:13:36.757Z,20.43
2022-12-08T06:16:09.823Z,17.63
2022-12-08T06:18:42.793Z,17.80
2022-12-08T06:21:16.455Z,18.77
2022-12-08T06:23:49.852Z,17.80
2022-12-08T06:26:24.088Z,15.20
2022-12-08T06:28:56.972Z,16.13
2022-12-08T06:31:29.733Z,20.83
2022-12-08T06:34:02.597Z,19.67
2022-12-08T06:36:35.580Z,17.37
2022-12-08T06:39:08.372Z,18.40
2022-12-08T06:41:56.499Z,16.57
2022-12-08T06:44:29.224Z,16.07
2022-12-08T06:47:02.074Z,16.73
2022-12-08T06:49:34.876Z,21.07
2022-12-08T06:52:07.738Z,23.90
2022-12-08T06:54:42.977Z,17.37
2022-12-08T06:57:18.368Z,23.60
2022-12-08T06:59:51.305Z,19.20
2022-12-08T07:02:24.130Z,18.90
2022-12-08T07:04:57.002Z,17.50
2022-12-08T07:07:30.079Z,20.30
2022-12-08T07:10:03.899Z,17.33
2022-12-08T07:12:38.599Z,18.53
2022-12-08T07:15:11.765Z,19.83
2022-12-08T07:17:44.471Z,19.57
2022-12-08T07:20:17.334Z,17.80
2022-12-08T07:22:50.996Z,16.70
2022-12-08T07:25:24.052Z,17.77
2022-12-08T07:28:00.747Z,19.03
2022-12-08T07:30:33.708Z,23.47
2022-12-08T07:33:09.018Z,16.33
2022-12-08T07:35:46.325Z,16.63
2022-12-08T07:38:21.877Z,17.57
2022-12-08T07:40:55.256Z,19.87
2022-12-08T07:43:29.308Z,20.23
2022-12-08T07:46:02.097Z,16.53
2022-12-08T07:48:37.748Z,18.50
2022-12-08T07:51:12.023Z,18.00
2022-12-08T07:53:51.810Z,16.27
2022-12-08T07:56:26.473Z,17.63
2022-12-08T07:59:02.617Z,15.23
2022-12-08T08:01:38.195Z,20.40
2022-12-08T08:04:13.644Z,17.83
2022-12-08T08:06:46.597Z,13.83
2022-12-08T08:09:19.604Z,14.47
2022-12-08T08:12:22.382Z,17.10
2022-12-08T08:14:46.536Z,19.50
2022-12-08T08:17:21.684Z,19.77
2022-12-08T08:19:54.560Z,20.23
2022-12-08T08:22:27.478Z,20.10
2022-12-08T08:25:00.483Z,19.50
2022-12-08T08:27:33.177Z,18.30
2022-12-08T08:30:08.521Z,15.77
2022-12-08T08:32:41.426Z,16.70
2022-12-08T08:35:14.110Z,21.40
2022-12-08T08:37:49.214Z,18.13
2022-12-08T08:40:25.065Z,18.97
2022-12-08T08:42:58.268Z,14.83
2022-12-08T08:45:32.895Z,15.63
2022-12-08T08:48:07.767Z,19.33
2022-12-08T08:50:40.808Z,15.20
2022-12-08T08:53:14.591Z,17.00
2022-12-08T08:55:47.633Z,13.10
2022-12-08T08:58:20.435Z,19.00
2022-12-08T09:00:54.901Z,15.87
2022-12-08T09:03:27.819Z,16.37
2022-12-08T09:06:00.791Z,16.27
2022-12-08T09:08:33.632Z,16.73
2022-12-08T09:11:06.892Z,15.77
2022-12-08T09:13:39.644Z,15.83
2022-12-08T09:16:13.787Z,17.70
2022-12-08T09:18:47.351Z,15.67
2022-12-08T09:21:22.617Z,14.77
2022-12-08T09:23:57.956Z,16.93
2022-12-08T09:26:30.716Z,12.70
2022-12-08T09:29:03.403Z,13.73
2022-12-08T09:31:37.830Z,14.40
2022-12-08T09:34:11.506Z,14.03
2022-12-08T09:36:44.328Z,15.20
2022-12-08T09:39:17.078Z,15.27
2022-12-08T09:41:50.988Z,15.10
2022-12-08T09:44:37.979Z,17.30
2022-12-08T09:47:16.519Z,12.70
2022-12-08T09:49:52.047Z,19.53
2022-12-08T09:52:26.609Z,15.17
2022-12-08T09:55:01.250Z,16.33
2022-12-08T09:57:34.043Z,16.23
2022-12-08T10:00:08.079Z,12.77
2022-12-08T10:02:42.230Z,20.90
2022-12-08T10:05:15.747Z,17.30
2022-12-08T10:07:50.160Z,22.90
2022-12-08T10:10:26.490Z,15.10
2022-12-08T10:13:03.203Z,13.20
2022-12-08T10:15:49.707Z,14.80
2022-12-08T10:18:26.184Z,14.40
2022-12-08T10:21:01.155Z,15.60
2022-12-08T10:23:36.071Z,15.23
2022-12-08T10:26:12.812Z,16.30
2022-12-08T10:28:45.901Z,14.27
2022-12-08T10:31:22.065Z,15.10
2022-12-08T10:34:00.790Z,12.80
2022-12-08T10:36:50.957Z,12.63
2022-12-08T10:39:34.823Z,14.83
2022-12-08T10:42:09.278Z,14.33
2022-12-08T10:44:53.325Z,15.17
2022-12-08T10:47:27.165Z,12.07
2022-12-08T10:50:21.116Z,11.57
2022-12-08T10:52:57.432Z,20.53
2022-12-08T10:55:40.441Z,17.07
2022-12-08T10:58:26.192Z,15.60
2022-12-08T11:01:00.137Z,15.70
2022-12-08T11:03:35.425Z,12.23
2022-12-08T11:06:16.316Z,14.70
2022-12-08T11:08:53.915Z,14.83
2022-12-08T11:11:39.429Z,14.70
2022-12-08T11:14:16.837Z,11.17
2022-12-08T11:16:50.389Z,12.97
2022-12-08T11:19:28.970Z,15.00
2022-12-08T11:22:06.079Z,11.77
2022-12-08T11:24:38.890Z,11.30
2022-12-08T11:27:11.818Z,15.03
2022-12-08T11:29:44.767Z,13.70
2022-12-08T11:32:17.656Z,14.80
2022-12-08T11:34:52.909Z,11.77
2022-12-08T11:37:34.740Z,8.17
2022-12-08T11:40:09.246Z,12.33
2022-12-08T11:42:45.306Z,12.97
2022-12-08T11:45:23.863Z,10.47
2022-12-08T11:47:59.982Z,13.40
2022-12-08T11:50:36.525Z,16.07
2022-12-08T11:53:14.948Z,13.47
2022-12-08T11:55:51.530Z,14.43
2022-12-08T11:58:27.525Z,12.17
2022-12-08T12:01:01.815Z,12.17
2022-12-08T12:03:36.874Z,14.30
2022-12-08T12:06:46.259Z,13.70
2022-12-08T12:09:20.708Z,14.53
2022-12-08T12:12:15.999Z,11.30
2022-12-08T12:15:16.511Z,13.77
2022-12-08T12:17:50.328Z,16.20
2022-12-08T12:20:27.924Z,12.23
2022-12-08T12:23:04.822Z,14.27
2022-12-08T12:25:39.695Z,14.27
2022-12-08T12:28:13.499Z,22.03
2022-12-08T12:30:58.187Z,14.90
2022-12-08T12:33:31.856Z,12.60
2022-12-08T12:36:06.149Z,12.87
2022-12-08T12:38:57.840Z,11.37
2022-12-08T12:41:34.055Z,12.33
2022-12-08T12:44:24.951Z,14.43
2022-12-08T12:47:00.463Z,12.43
2022-12-08T12:49:52.667Z,14.17
2022-12-08T12:52:53.224Z,13.93
2022-12-08T12:55:30.999Z,11.23
2022-12-08T12:58:20.356Z,11.50
2022-12-08T13:01:13.620Z,12.33
2022-12-08T13:03:48.258Z,9.03
2022-12-08T13:06:23.990Z,16.17
2022-12-08T13:08:56.934Z,13.10
2022-12-08T13:11:29.828Z,9.93
2022-12-08T13:14:05.053Z,12.77
2022-12-08T13:16:39.694Z,9.97
2022-12-08T13:19:14.391Z,10.13
2022-12-08T13:21:47.225Z,9.43
2022-12-08T13:24:29.515Z,8.63
2022-12-08T13:27:21.965Z,8.33
2022-12-08T13:30:09.625Z,8.67
2022-12-08T13:36:11.781Z,6.97
2022-12-08T13:38:46.571Z,8.20
2022-12-08T13:41:21.580Z,8.50
2022-12-08T13:44:50.405Z,10.40
2022-12-08T13:47:24.541Z,9.93
2022-12-08T13:58:42.695Z,11.70
2022-12-08T14:01:18.349Z,11.80
2022-12-08T14:04:30.572Z,12.17
2022-12-08T14:06:56.870Z,10.93
2022-12-08T14:09:33.515Z,14.30
2022-12-08T14:12:09.103Z,11.50
2022-12-08T14:17:35.801Z,9.83
2022-12-08T14:20:19.188Z,10.57
2022-12-08T14:22:54.479Z,11.50
2022-12-08T14:25:27.835Z,10.87
2022-12-08T14:28:02.695Z,12.20
2022-12-08T14:30:39.095Z,11.67
2022-12-08T14:33:14.707Z,11.03
2022-12-08T14:35:57.395Z,13.27
2022-12-08T14:38:32.752Z,10.60
2022-12-08T14:41:06.706Z,14.53
2022-12-08T14:43:41.112Z,11.27
2022-12-08T14:46:21.376Z,11.60
2022-12-08T14:48:56.660Z,14.07
2022-12-08T14:51:32.282Z,11.13
2022-12-08T14:54:09.179Z,10.00
2022-12-08T14:56:43.293Z,10.90
2022-12-08T14:59:18.488Z,9.80
2022-12-08T15:01:53.234Z,9.97
2022-12-08T15:04:28.098Z,10.80
2022-12-08T15:07:04.669Z,12.30
2022-12-08T15:09:41.080Z,10.13
2022-12-08T15:12:26.627Z,10.77
2022-12-08T15:15:02.403Z,12.63
2022-12-08T15:17:35.815Z,12.07
2022-12-08T15:20:23.766Z,10.33
2022-12-08T15:22:56.998Z,10.17
2022-12-08T15:25:31.228Z,11.30
2022-12-08T15:28:04.355Z,12.97
2022-12-08T15:30:37.101Z,12.97
2022-12-08T15:33:11.680Z,12.77
2022-12-08T15:35:44.726Z,12.93
2022-12-08T15:38:21.637Z,9.63
2022-12-08T15:40:56.295Z,35.57
2022-12-08T15:43:29.146Z,11.27
2022-12-08T15:46:02.155Z,12.93
2022-12-08T15:48:34.986Z,11.60
2022-12-08T15:51:07.707Z,13.40
2022-12-08T15:53:40.717Z,11.03
2022-12-08T15:56:30.586Z,10.93
2022-12-08T15:59:03.383Z,11.93
2022-12-08T16:01:36.137Z,14.80
2022-12-08T16:04:37.273Z,13.10
2022-12-08T16:07:21.471Z,11.87
2022-12-08T16:09:55.387Z,16.23
2022-12-08T16:16:00.714Z,10.43
2022-12-08T16:18:35.493Z,9.07
2022-12-08T16:21:53.454Z,11.63
2022-12-08T16:24:05.997Z,11.73
2022-12-08T16:27:58.148Z,11.87
2022-12-08T16:29:39.213Z,11.00
2022-12-08T16:32:12.743Z,11.47
2022-12-08T16:34:45.600Z,11.13
2022-12-08T16:37:19.454Z,11.87
2022-12-08T16:39:53.010Z,12.50
2022-12-08T16:42:43.396Z,12.67
2022-12-08T16:45:18.967Z,11.63
2022-12-08T16:47:54.682Z,13.20
2022-12-08T16:50:30.619Z,11.93
2022-12-08T16:53:05.096Z,13.20
2022-12-08T16:55:37.913Z,11.03
2022-12-08T16:58:10.688Z,13.00
2022-12-08T17:00:45.164Z,14.07
2022-12-08T17:03:18.646Z,13.67
2022-12-08T17:05:51.737Z,10.90
2022-12-08T17:08:24.667Z,10.63
2022-12-08T17:11:08.201Z,13.63
2022-12-08T17:13:42.350Z,11.57
2022-12-08T17:16:17.691Z,9.07
2022-12-08T17:18:50.760Z,11.73
2022-12-08T17:21:23.787Z,10.07
2022-12-08T17:23:56.572Z,10.73
2022-12-08T17:26:29.634Z,12.00
2022-12-08T17:29:03.378Z,11.37
2022-12-08T17:31:38.145Z,11.97
2022-12-08T17:34:17.195Z,10.73
2022-12-08T17:36:52.785Z,12.40
2022-12-08T17:39:26.018Z,11.50
2022-12-08T17:42:01.231Z,10.37
2022-12-08T17:44:35.284Z,11.20
2022-12-08T17:47:09.733Z,12.93
2022-12-08T17:49:45.684Z,13.13
2022-12-08T17:52:21.444Z,11.00
2022-12-08T17:54:54.582Z,11.47
2022-12-08T17:57:27.653Z,11.37
2022-12-08T18:00:03.059Z,12.60
2022-12-08T18:02:41.155Z,14.20
2022-12-08T18:05:14.540Z,13.93
2022-12-08T18:07:50.227Z,13.43
2022-12-08T18:10:23.516Z,12.00
2022-12-08T18:12:58.650Z,16.27
2022-12-08T18:15:34.775Z,14.97
2022-12-08T18:18:13.222Z,17.00
2022-12-08T18:20:46.517Z,17.30
2022-12-08T18:23:19.477Z,18.03
2022-12-08T18:25:52.145Z,18.93
2022-12-08T18:28:25.055Z,13.83
2022-12-08T18:30:58.055Z,13.67
2022-12-08T18:33:32.831Z,14.40
2022-12-08T18:36:08.262Z,11.67
2022-12-08T18:38:40.973Z,12.27
2022-12-08T18:41:15.752Z,14.73
2022-12-08T18:43:48.525Z,13.30
2022-12-08T18:46:21.708Z,14.43
2022-12-08T18:48:55.959Z,16.87
2022-12-08T18:51:29.433Z,13.57
2022-12-08T18:54:02.341Z,14.03
2022-12-08T18:56:36.177Z,14.10
2022-12-08T18:59:11.943Z,12.70
2022-12-08T19:01:45.152Z,15.60
2022-12-08T19:04:28.476Z,16.70
2022-12-08T19:07:02.369Z,17.07
2022-12-08T19:09:35.399Z,15.13
2022-12-08T19:12:14.275Z,14.13
2022-12-08T19:14:47.096Z,14.13
2022-12-08T19:17:19.959Z,16.27
2022-12-08T19:19:54.385Z,19.13
2022-12-08T19:22:29.250Z,13.93
2022-12-08T19:25:02.426Z,14.63
2022-12-08T19:27:39.009Z,16.67
2022-12-08T19:30:12.920Z,16.20
2022-12-08T19:32:48.349Z,13.67
2022-12-08T19:35:22.662Z,14.47
2022-12-08T19:37:59.049Z,14.77
2022-12-08T19:40:51.695Z,14.50
2022-12-08T19:43:42.034Z,13.30
2022-12-08T19:46:15.180Z,12.20
2022-12-08T19:48:49.735Z,12.57
2022-12-08T19:51:24.033Z,13.13
2022-12-08T19:53:56.846Z,11.50
2022-12-08T19:56:29.856Z,12.03
2022-12-08T19:59:03.334Z,13.77
2022-12-08T20:01:39.331Z,11.23
2022-12-08T20:04:14.677Z,13.70
2022-12-08T20:06:49.237Z,15.37
2022-12-08T20:09:28.049Z,15.30
2022-12-08T20:12:00.770Z,15.20
2022-12-08T20:14:35.256Z,13.70
2022-12-08T20:17:08.336Z,15.67
2022-12-08T20:19:41.201Z,15.93
2022-12-08T20:22:15.313Z,14.67
2022-12-08T20:24:57.272Z,12.73
2022-12-08T20:27:32.462Z,12.57
2022-12-08T20:30:05.806Z,22.37
2022-12-08T20:32:38.734Z,14.50
2022-12-08T20:35:11.787Z,14.77
2022-12-08T20:37:46.087Z,14.53
2022-12-08T20:40:19.049Z,14.47
2022-12-08T20:42:52.260Z,14.27
2022-12-08T20:45:25.220Z,14.53
2022-12-08T20:47:58.245Z,13.43
2022-12-08T20:50:30.945Z,11.47
2022-12-08T20:53:09.296Z,13.33
2022-12-08T20:55:43.002Z,37.47
2022-12-08T20:58:15.895Z,13.33
2022-12-08T21:00:48.679Z,15.60
2022-12-08T21:03:21.984Z,15.73
2022-12-08T21:05:54.962Z,17.73
2022-12-08T21:08:30.724Z,14.80
2022-12-08T21:11:03.844Z,13.57
2022-12-08T21:13:37.908Z,16.63
2022-12-08T21:16:12.948Z,14.50
2022-12-08T21:18:45.856Z,15.00
2022-12-08T21:21:19.063Z,15.53
2022-12-08T21:23:53.592Z,15.37
2022-12-08T21:26:27.795Z,15.40
2022-12-08T21:29:00.695Z,17.43
2022-12-08T21:31:33.785Z,16.27
2022-12-08T21:34:07.025Z,13.63
2022-12-08T21:36:40.411Z,13.37
2022-12-08T21:39:14.965Z,17.00
2022-12-08T21:42:05.344Z,14.23
2022-12-08T21:44:38.685Z,15.27
2022-12-08T21:47:12.372Z,16.07
2022-12-08T21:49:48.067Z,16.10
2022-12-08T21:52:20.820Z,16.83
2022-12-08T21:54:55.517Z,14.80
2022-12-08T21:57:28.807Z,16.97
2022-12-08T22:00:04.998Z,17.40
2022-12-08T22:02:38.395Z,16.47
2022-12-08T22:05:11.942Z,16.83
2022-12-08T22:07:45.164Z,14.77
2022-12-08T22:10:21.113Z,16.07
2022-12-08T22:12:54.286Z,16.33
2022-12-08T22:15:29.754Z,15.20
2022-12-08T22:18:05.867Z,16.37
2022-12-08T22:20:44.094Z,17.43
2022-12-08T22:23:17.887Z,15.20
2022-12-08T22:25:58.798Z,14.60
2022-12-08T22:28:33.649Z,15.87
2022-12-08T22:31:12.715Z,16.57
2022-12-08T22:33:49.083Z,16.33
2022-12-08T22:36:23.332Z,17.27
2022-12-08T22:38:59.547Z,15.47
2022-12-08T22:41:34.317Z,15.17
2022-12-08T22:44:10.279Z,16.00
2022-12-08T22:46:43.173Z,14.17
2022-12-08T22:49:19.132Z,16.53
2022-12-08T22:51:57.670Z,17.30
2022-12-08T22:54:31.041Z,18.37
2022-12-08T22:57:07.248Z,14.63
2022-12-08T22:59:43.680Z,16.83
2022-12-08T23:02:17.936Z,15.23
2022-12-08T23:04:51.119Z,15.67
2022-12-08T23:07:24.032Z,17.20
2022-12-08T23:09:58.876Z,14.47
2022-12-08T23:12:33.721Z,18.57
2022-12-08T23:15:07.251Z,16.50
2022-12-08T23:17:40.474Z,17.10
2022-12-08T23:20:16.505Z,18.57
2022-12-08T23:22:49.423Z,17.47
2022-12-08T23:25:22.486Z,20.30
2022-12-08T23:27:56.956Z,16.13
2022-12-08T23:30:29.846Z,18.57
2022-12-08T23:33:02.807Z,17.43
2022-12-08T23:35:38.125Z,18.40
2022-12-08T23:38:10.928Z,17.10
2022-12-08T23:40:44.131Z,21.50
2022-12-08T23:43:18.839Z,17.17
2022-12-08T23:45:51.732Z,17.87
2022-12-08T23:48:24.743Z,18.40
2022-12-08T23:51:00.343Z,18.07
2022-12-08T23:53:33.341Z,16.90
2022-12-08T23:56:08.232Z,18.03
2022-12-08T23:58:43.241Z,19.20
